createdAt,value
2023-04-07T00:01:12.614Z,101445.94
2023-04-07T00:03:41.073Z,101447.78
2023-04-07T00:06:10.470Z,101453.31
2023-04-07T00:08:38.213Z,101443.72
2023-04-07T00:11:06.195Z,101443.94
2023-04-07T00:13:34.037Z,101447.13
2023-04-07T00:16:01.794Z,101439.91
2023-04-07T00:18:29.665Z,101433.94
2023-04-07T00:20:57.504Z,101434.38
2023-04-07T00:23:27.113Z,101435.78
2023-04-07T00:25:54.916Z,101440.34
2023-04-07T00:28:22.628Z,101437.03
2023-04-07T00:30:50.417Z,101431.38
2023-04-07T00:33:18.180Z,101430.84
2023-04-07T00:35:46.438Z,101427.16
2023-04-07T00:38:14.243Z,101431.19
2023-04-07T00:40:43.376Z,101430.97
2023-04-07T00:43:11.222Z,101422.09
2023-04-07T00:45:39.002Z,101424.38
2023-04-07T00:48:07.379Z,101419.63
2023-04-07T00:50:35.179Z,101421.13
2023-04-07T00:53:03.295Z,101419.81
2023-04-07T00:55:31.218Z,101413.91
2023-04-07T00:58:00.487Z,101415.41
2023-04-07T01:00:28.995Z,101417.53
2023-04-07T01:03:01.220Z,101421.50
2023-04-07T01:05:38.152Z,101425.72
2023-04-07T01:08:14.402Z,101426.38
2023-04-07T01:10:49.553Z,101423.53
2023-04-07T01:13:25.426Z,101427.31
2023-04-07T01:15:57.247Z,101418.78
2023-04-07T01:18:30.412Z,101423.34
2023-04-07T01:21:04.716Z,101421.97
2023-04-07T01:23:42.793Z,101425.00
2023-04-07T01:26:20.859Z,101429.22
2023-04-07T01:29:23.705Z,101421.59
2023-04-07T01:31:55.874Z,101415.09
2023-04-07T01:34:27.037Z,101413.16
2023-04-07T01:36:56.611Z,101419.03
2023-04-07T01:39:25.347Z,101426.44
2023-04-07T01:41:54.608Z,101421.47
2023-04-07T01:44:23.531Z,101418.16
2023-04-07T01:46:52.780Z,101418.50
2023-04-07T01:49:20.738Z,101427.91
2023-04-07T01:51:50.565Z,101424.13
2023-04-07T01:54:19.470Z,101426.56
2023-04-07T01:56:47.478Z,101420.94
2023-04-07T01:59:15.530Z,101429.16
2023-04-07T02:01:43.506Z,101435.22
2023-04-07T02:04:21.615Z,101425.56
2023-04-07T02:06:54.264Z,101435.69
2023-04-07T02:09:23.741Z,101424.91
2023-04-07T02:11:54.363Z,101431.69
2023-04-07T02:14:24.327Z,101431.41
2023-04-07T02:16:53.989Z,101433.56
2023-04-07T02:19:23.885Z,101434.19
2023-04-07T02:21:53.176Z,101433.72
2023-04-07T02:24:22.139Z,101429.56
2023-04-07T02:26:49.974Z,101439.03
2023-04-07T02:29:17.695Z,101435.69
2023-04-07T02:31:45.916Z,101441.19
2023-04-07T02:34:13.732Z,101444.63
2023-04-07T02:36:42.944Z,101444.72
2023-04-07T02:39:11.048Z,101438.66
2023-04-07T02:41:38.768Z,101441.19
2023-04-07T02:44:06.612Z,101452.34
2023-04-07T02:46:34.412Z,101448.41
2023-04-07T02:49:02.258Z,101453.88
2023-04-07T02:51:29.962Z,101444.44
2023-04-07T02:53:59.000Z,101445.50
2023-04-07T02:56:26.695Z,101446.34
2023-04-07T02:58:54.382Z,101435.69
2023-04-07T03:01:22.169Z,101434.25
2023-04-07T03:03:50.172Z,101441.34
2023-04-07T03:06:18.029Z,101446.16
2023-04-07T03:08:46.164Z,101445.56
2023-04-07T03:11:15.521Z,101434.56
2023-04-07T03:13:43.194Z,101440.00
2023-04-07T03:16:10.928Z,101436.34
2023-04-07T03:18:38.686Z,101449.94
2023-04-07T03:21:06.428Z,101445.03
2023-04-07T03:23:34.151Z,101442.72
2023-04-07T03:26:02.415Z,101435.19
2023-04-07T03:28:32.024Z,101433.41
2023-04-07T03:30:59.764Z,101428.09
2023-04-07T03:33:27.566Z,101437.44
2023-04-07T03:35:55.561Z,101430.41
2023-04-07T03:38:23.311Z,101430.19
2023-04-07T03:40:51.091Z,101434.94
2023-04-07T03:43:18.839Z,101436.19
2023-04-07T03:45:48.221Z,101435.09
2023-04-07T03:48:16.139Z,101427.72
2023-04-07T03:50:43.844Z,101414.34
2023-04-07T03:53:11.560Z,101421.56
2023-04-07T03:55:39.364Z,101421.56
2023-04-07T03:58:07.209Z,101424.97
2023-04-07T04:00:35.447Z,101429.66
2023-04-07T04:03:05.024Z,101416.94
2023-04-07T04:05:32.855Z,101431.84
2023-04-07T04:08:00.643Z,101427.72
2023-04-07T04:10:28.353Z,101428.19
2023-04-07T04:12:56.069Z,101433.41
2023-04-07T04:15:23.785Z,101424.50
2023-04-07T04:17:51.515Z,101421.88
2023-04-07T04:20:22.157Z,101425.75
2023-04-07T04:22:50.003Z,101417.44
2023-04-07T04:25:17.786Z,101424.59
2023-04-07T04:27:45.765Z,101425.13
2023-04-07T04:30:13.841Z,101426.34
2023-04-07T04:32:41.643Z,101428.50
2023-04-07T04:35:10.338Z,101423.47
2023-04-07T04:37:39.419Z,101429.41
2023-04-07T04:40:09.344Z,101425.56
2023-04-07T04:42:37.240Z,101424.94
2023-04-07T04:45:05.813Z,101424.44
2023-04-07T04:47:33.572Z,101427.13
2023-04-07T04:50:01.454Z,101425.78
2023-04-07T04:52:29.220Z,101429.03
2023-04-07T04:54:58.329Z,101428.88
2023-04-07T04:57:26.107Z,101432.91
2023-04-07T04:59:53.831Z,101434.75
2023-04-07T05:02:22.065Z,101433.47
2023-04-07T05:04:50.353Z,101430.78
2023-04-07T05:07:18.187Z,101431.56
2023-04-07T05:09:45.950Z,101434.25
2023-04-07T05:12:15.034Z,101438.56
2023-04-07T05:14:42.716Z,101427.88
2023-04-07T05:17:10.664Z,101437.09
2023-04-07T05:19:38.428Z,101432.50
2023-04-07T05:22:06.218Z,101441.09
2023-04-07T05:24:33.996Z,101441.34
2023-04-07T05:27:02.061Z,101445.88
2023-04-07T05:29:31.197Z,101445.22
2023-04-07T05:31:59.032Z,101443.66
2023-04-07T05:34:27.302Z,101441.97
2023-04-07T05:36:55.102Z,101440.59
2023-04-07T05:39:22.827Z,101436.28
2023-04-07T05:41:50.561Z,101440.03
2023-04-07T05:44:18.283Z,101435.72
2023-04-07T05:46:47.362Z,101437.03
2023-04-07T05:49:19.918Z,101441.47
2023-04-07T05:51:49.113Z,101442.78
2023-04-07T05:54:17.297Z,101446.63
2023-04-07T05:56:45.006Z,101445.97
2023-04-07T05:59:12.734Z,101452.88
2023-04-07T06:01:40.557Z,101452.97
2023-04-07T06:04:10.041Z,101456.09
2023-04-07T06:06:38.210Z,101453.28
2023-04-07T06:09:07.004Z,101452.41
2023-04-07T06:11:35.991Z,101456.75
2023-04-07T06:14:03.692Z,101453.28
2023-04-07T06:16:31.545Z,101459.13
2023-04-07T06:18:59.682Z,101466.78
2023-04-07T06:21:28.879Z,101461.94
2023-04-07T06:23:56.560Z,101473.59
2023-04-07T06:26:24.608Z,101470.09
2023-04-07T06:28:53.050Z,101470.91
2023-04-07T06:31:21.039Z,101476.09
2023-04-07T06:33:49.090Z,101474.28
2023-04-07T06:36:17.407Z,101475.41
2023-04-07T06:38:47.180Z,101472.94
2023-04-07T06:41:17.100Z,101480.81
2023-04-07T06:43:45.064Z,101480.44
2023-04-07T06:46:12.886Z,101490.75
2023-04-07T06:48:40.806Z,101497.00
2023-04-07T06:51:08.530Z,101493.25
2023-04-07T06:53:36.432Z,101490.47
2023-04-07T06:56:07.121Z,101495.00
2023-04-07T06:58:35.438Z,101492.06
2023-04-07T07:01:04.752Z,101502.00
2023-04-07T07:03:32.736Z,101495.44
2023-04-07T07:06:01.307Z,101505.81
2023-04-07T07:08:30.711Z,101507.88
2023-04-07T07:10:58.466Z,101498.97
2023-04-07T07:13:28.200Z,101506.22
2023-04-07T07:15:56.109Z,101511.50
2023-04-07T07:18:23.985Z,101506.88
2023-04-07T07:20:51.801Z,101496.78
2023-04-07T07:23:19.517Z,101506.00
2023-04-07T07:25:47.256Z,101497.13
2023-04-07T07:28:15.053Z,101500.63
2023-04-07T07:30:44.210Z,101500.13
2023-04-07T07:33:11.905Z,101503.09
2023-04-07T07:35:40.432Z,101503.16
2023-04-07T07:38:08.409Z,101512.75
2023-04-07T07:40:36.274Z,101510.81
2023-04-07T07:43:04.034Z,101515.66
2023-04-07T07:45:31.744Z,101508.66
2023-04-07T07:48:01.168Z,101511.03
2023-04-07T07:50:29.030Z,101505.94
2023-04-07T07:52:56.796Z,101509.28
2023-04-07T07:55:24.559Z,101509.59
2023-04-07T07:57:52.274Z,101502.03
2023-04-07T08:00:20.510Z,101503.97
2023-04-07T08:02:48.333Z,101502.25
2023-04-07T08:05:17.751Z,101499.03
2023-04-07T08:07:46.870Z,101509.91
2023-04-07T08:10:14.775Z,101513.44
2023-04-07T08:12:42.592Z,101512.94
2023-04-07T08:15:10.749Z,101515.38
2023-04-07T08:17:38.631Z,101515.53
2023-04-07T08:20:08.819Z,101521.41
2023-04-07T08:22:38.035Z,101517.59
2023-04-07T08:25:06.443Z,101525.69
2023-04-07T08:27:34.638Z,101522.69
2023-04-07T08:30:04.285Z,101518.06
2023-04-07T08:32:38.824Z,101524.34
2023-04-07T08:35:07.282Z,101526.97
2023-04-07T08:37:37.416Z,101522.50
2023-04-07T08:40:06.890Z,101530.28
2023-04-07T08:42:36.269Z,101526.59
2023-04-07T08:45:06.327Z,101529.13
2023-04-07T08:47:35.466Z,101525.41
2023-04-07T08:50:04.955Z,101522.38
2023-04-07T08:52:36.323Z,101516.50
2023-04-07T08:55:06.940Z,101529.91
2023-04-07T08:57:35.395Z,101530.41
2023-04-07T09:00:05.810Z,101523.34
2023-04-07T09:02:35.151Z,101520.56
2023-04-07T09:05:05.875Z,101531.03
2023-04-07T09:07:35.244Z,101529.88
2023-04-07T09:10:03.106Z,101527.25
2023-04-07T09:12:33.502Z,101530.06
2023-04-07T09:15:01.739Z,101538.56
2023-04-07T09:17:30.404Z,101541.88
2023-04-07T09:19:59.241Z,101541.44
2023-04-07T09:22:37.811Z,101544.59
2023-04-07T09:25:14.572Z,101555.16
2023-04-07T09:27:55.546Z,101552.59
2023-04-07T09:30:24.012Z,101549.94
2023-04-07T09:32:52.180Z,101549.75
2023-04-07T09:35:23.110Z,101551.19
2023-04-07T09:38:04.868Z,101555.16
2023-04-07T09:40:32.839Z,101551.53
2023-04-07T09:43:03.954Z,101551.19
2023-04-07T09:45:36.272Z,101560.50
2023-04-07T09:48:08.495Z,101561.41
2023-04-07T09:50:37.836Z,101559.00
2023-04-07T09:53:05.705Z,101553.56
2023-04-07T09:55:33.957Z,101551.13
2023-04-07T09:58:03.215Z,101554.19
2023-04-07T10:00:31.158Z,101555.34
2023-04-07T10:02:59.820Z,101555.13
2023-04-07T10:05:28.768Z,101555.81
2023-04-07T10:07:57.086Z,101553.50
2023-04-07T10:10:26.594Z,101541.13
2023-04-07T10:12:55.502Z,101538.84
2023-04-07T10:15:24.806Z,101542.03
2023-04-07T10:17:54.566Z,101540.34
2023-04-07T10:20:23.870Z,101539.88
2023-04-07T10:22:54.651Z,101530.31
2023-04-07T10:25:25.209Z,101536.69
2023-04-07T10:27:57.331Z,101529.78
2023-04-07T10:30:28.189Z,101527.59
2023-04-07T10:32:57.040Z,101527.34
2023-04-07T10:35:25.491Z,101528.88
2023-04-07T10:38:14.949Z,101526.56
2023-04-07T10:40:44.093Z,101522.97
2023-04-07T10:43:12.356Z,101518.00
2023-04-07T10:46:05.251Z,101512.91
2023-04-07T10:48:34.098Z,101515.16
2023-04-07T10:51:22.745Z,101512.19
2023-04-07T10:54:27.870Z,101513.63
2023-04-07T10:57:14.118Z,101506.59
2023-04-07T11:00:03.349Z,101502.25
2023-04-07T11:02:36.798Z,101493.03
2023-04-07T11:05:05.031Z,101495.41
2023-04-07T11:07:48.702Z,101494.66
2023-04-07T11:10:19.009Z,101489.91
2023-04-07T11:13:01.556Z,101487.22
2023-04-07T11:15:29.431Z,101485.94
2023-04-07T11:18:13.314Z,101487.00
2023-04-07T11:20:50.068Z,101474.63
2023-04-07T11:23:19.744Z,101480.44
2023-04-07T11:25:49.302Z,101480.75
2023-04-07T11:28:17.786Z,101477.81
2023-04-07T11:30:51.772Z,101471.50
2023-04-07T11:33:22.467Z,101475.25
2023-04-07T11:35:55.629Z,101474.41
2023-04-07T11:38:24.298Z,101473.53
2023-04-07T11:40:52.189Z,101471.50
2023-04-07T11:43:21.914Z,101471.38
2023-04-07T11:46:06.074Z,101472.38
2023-04-07T11:48:36.313Z,101472.50
2023-04-07T11:51:04.635Z,101477.28
2023-04-07T11:53:34.298Z,101469.22
2023-04-07T11:56:07.581Z,101463.66
2023-04-07T11:58:35.093Z,101464.88
2023-04-07T12:01:06.963Z,101456.69
2023-04-07T12:03:37.823Z,101457.09
2023-04-07T12:06:06.364Z,101454.22
2023-04-07T12:08:45.126Z,101452.06
2023-04-07T12:11:13.283Z,101450.66
2023-04-07T12:13:41.494Z,101448.78
2023-04-07T12:16:09.502Z,101444.16
2023-04-07T12:18:38.616Z,101450.78
2023-04-07T12:21:06.417Z,101447.63
2023-04-07T12:23:34.082Z,101442.84
2023-04-07T12:26:02.223Z,101442.56
2023-04-07T12:28:30.029Z,101442.75
2023-04-07T12:30:57.821Z,101440.41
2023-04-07T12:33:25.566Z,101439.22
2023-04-07T12:35:54.877Z,101440.28
2023-04-07T12:38:22.655Z,101441.06
2023-04-07T12:40:50.379Z,101433.56
2023-04-07T12:43:18.262Z,101431.63
2023-04-07T12:45:46.092Z,101436.13
2023-04-07T12:48:13.871Z,101429.94
2023-04-07T12:50:41.619Z,101427.41
2023-04-07T12:53:10.651Z,101425.44
2023-04-07T12:55:38.445Z,101423.41
2023-04-07T12:58:06.160Z,101416.19
2023-04-07T13:00:33.884Z,101412.38
2023-04-07T13:03:01.992Z,101419.69
2023-04-07T13:05:30.540Z,101412.75
2023-04-07T13:07:58.256Z,101413.16
2023-04-07T13:10:27.438Z,101413.22
2023-04-07T13:12:55.408Z,101405.78
2023-04-07T13:15:23.283Z,101406.09
2023-04-07T13:17:51.305Z,101403.41
2023-04-07T13:20:20.818Z,101409.78
2023-04-07T13:22:59.282Z,101403.00
2023-04-07T13:25:35.011Z,101399.59
2023-04-07T13:28:02.886Z,101403.75
2023-04-07T13:30:30.621Z,101413.06
2023-04-07T13:32:58.727Z,101401.16
2023-04-07T13:35:26.750Z,101404.56
2023-04-07T13:37:54.741Z,101408.59
2023-04-07T13:40:22.532Z,101395.50
2023-04-07T13:42:51.602Z,101385.81
2023-04-07T13:45:19.304Z,101388.75
2023-04-07T13:47:47.471Z,101392.50
2023-04-07T13:50:15.812Z,101384.84
2023-04-07T13:52:43.562Z,101392.78
2023-04-07T13:55:11.312Z,101389.50
2023-04-07T13:57:39.169Z,101390.56
2023-04-07T14:00:09.640Z,101391.31
2023-04-07T14:02:37.442Z,101387.50
2023-04-07T14:05:05.629Z,101380.16
2023-04-07T14:07:33.330Z,101381.16
2023-04-07T14:10:01.176Z,101386.56
2023-04-07T14:12:28.849Z,101378.44
2023-04-07T14:14:56.516Z,101376.72
2023-04-07T14:17:25.956Z,101369.78
2023-04-07T14:19:54.000Z,101370.47
2023-04-07T14:22:21.799Z,101368.13
2023-04-07T14:24:49.582Z,101369.53
2023-04-07T14:27:20.978Z,101374.63
2023-04-07T14:29:49.085Z,101365.63
2023-04-07T14:32:17.221Z,101362.34
2023-04-07T14:34:46.377Z,101356.63
2023-04-07T14:37:16.133Z,101350.75
2023-04-07T14:39:55.234Z,101352.00
2023-04-07T14:42:30.130Z,101349.66
2023-04-07T14:44:57.967Z,101351.75
2023-04-07T14:47:26.393Z,101351.47
2023-04-07T14:49:55.627Z,101350.75
2023-04-07T14:52:23.397Z,101344.44
2023-04-07T14:54:51.138Z,101343.16
2023-04-07T14:57:19.665Z,101335.19
2023-04-07T14:59:48.494Z,101333.91
2023-04-07T15:02:16.320Z,101340.16
2023-04-07T15:04:44.279Z,101337.88
2023-04-07T15:07:13.451Z,101343.84
2023-04-07T15:09:41.208Z,101337.13
2023-04-07T15:12:08.935Z,101332.03
2023-04-07T15:14:36.697Z,101336.34
2023-04-07T15:17:04.417Z,101337.03
2023-04-07T15:19:32.095Z,101343.19
2023-04-07T15:21:59.862Z,101338.66
2023-04-07T15:24:29.041Z,101329.34
2023-04-07T15:26:56.714Z,101335.59
2023-04-07T15:29:24.402Z,101331.41
2023-04-07T15:31:52.190Z,101343.09
2023-04-07T15:34:19.949Z,101343.22
2023-04-07T15:36:47.691Z,101337.22
2023-04-07T15:39:16.863Z,101339.41
2023-04-07T15:41:45.979Z,101338.47
2023-04-07T15:44:18.652Z,101336.50
2023-04-07T15:46:46.588Z,101337.59
2023-04-07T15:49:19.887Z,101338.03
2023-04-07T15:51:47.698Z,101335.94
2023-04-07T15:54:15.428Z,101333.22
2023-04-07T15:56:43.088Z,101327.13
2023-04-07T15:59:12.232Z,101328.66
2023-04-07T16:01:40.282Z,101333.22
2023-04-07T16:04:08.164Z,101339.47
2023-04-07T16:06:36.324Z,101331.59
2023-04-07T16:09:05.350Z,101334.53
2023-04-07T16:11:33.076Z,101321.84
2023-04-07T16:14:00.859Z,101333.69
2023-04-07T16:16:32.466Z,101327.56
2023-04-07T16:19:00.233Z,101331.50
2023-04-07T16:21:27.985Z,101335.06
2023-04-07T16:23:55.982Z,101329.31
2023-04-07T16:26:23.710Z,101326.69
2023-04-07T16:28:51.429Z,101331.47
2023-04-07T16:31:19.176Z,101325.13
2023-04-07T16:33:48.600Z,101332.69
2023-04-07T16:36:16.554Z,101335.94
2023-04-07T16:38:44.295Z,101333.28
2023-04-07T16:41:12.035Z,101332.13
2023-04-07T16:43:39.754Z,101334.69
2023-04-07T16:46:07.547Z,101331.59
2023-04-07T16:48:35.264Z,101329.97
2023-04-07T16:51:04.436Z,101334.78
2023-04-07T16:53:32.192Z,101337.91
2023-04-07T16:55:59.960Z,101332.53
2023-04-07T16:58:28.054Z,101333.38
2023-04-07T17:00:55.900Z,101335.13
2023-04-07T17:03:23.823Z,101340.16
2023-04-07T17:05:51.644Z,101335.63
2023-04-07T17:08:21.074Z,101337.00
2023-04-07T17:10:48.772Z,101332.72
2023-04-07T17:13:16.562Z,101345.59
2023-04-07T17:15:44.267Z,101336.97
2023-04-07T17:18:11.977Z,101340.25
2023-04-07T17:20:39.687Z,101343.88
2023-04-07T17:23:07.795Z,101340.06
2023-04-07T17:25:36.923Z,101344.59
2023-04-07T17:28:04.640Z,101346.03
2023-04-07T17:30:33.146Z,101348.88
2023-04-07T17:33:01.161Z,101351.94
2023-04-07T17:35:28.969Z,101343.59
2023-04-07T17:37:57.202Z,101354.00
2023-04-07T17:40:24.925Z,101351.94
2023-04-07T17:42:54.034Z,101351.28
2023-04-07T17:45:22.393Z,101352.72
2023-04-07T17:47:50.977Z,101354.09
2023-04-07T17:50:19.193Z,101357.94
2023-04-07T17:52:46.976Z,101363.91
2023-04-07T17:55:14.920Z,101372.34
2023-04-07T17:57:42.917Z,101372.66
2023-04-07T18:00:12.742Z,101371.53
2023-04-07T18:02:41.427Z,101379.25
2023-04-07T18:05:10.585Z,101382.13
2023-04-07T18:07:39.015Z,101382.97
2023-04-07T18:10:08.079Z,101389.88
2023-04-07T18:12:35.855Z,101391.44
2023-04-07T18:15:04.548Z,101392.09
2023-04-07T18:17:33.761Z,101388.44
2023-04-07T18:20:02.152Z,101392.66
2023-04-07T18:22:29.878Z,101393.19
2023-04-07T18:24:57.566Z,101403.03
2023-04-07T18:27:27.941Z,101397.13
2023-04-07T18:29:55.809Z,101405.09
2023-04-07T18:32:24.310Z,101403.25
2023-04-07T18:34:54.772Z,101406.47
2023-04-07T18:37:22.825Z,101393.88
2023-04-07T18:39:52.205Z,101398.19
2023-04-07T18:42:20.091Z,101401.03
2023-04-07T18:44:47.931Z,101403.59
2023-04-07T18:47:16.118Z,101401.50
2023-04-07T18:49:43.870Z,101402.91
2023-04-07T18:52:12.975Z,101406.88
2023-04-07T18:54:40.822Z,101414.63
2023-04-07T18:57:08.502Z,101421.06
2023-04-07T18:59:36.500Z,101421.09
2023-04-07T19:02:04.302Z,101412.53
2023-04-07T19:04:32.107Z,101417.09
2023-04-07T19:07:00.002Z,101419.94
2023-04-07T19:09:29.581Z,101425.97
2023-04-07T19:11:58.003Z,101424.69
2023-04-07T19:14:25.964Z,101431.41
2023-04-07T19:16:53.875Z,101436.84
2023-04-07T19:19:21.638Z,101427.38
2023-04-07T19:21:49.324Z,101438.25
2023-04-07T19:24:17.071Z,101446.25
2023-04-07T19:26:46.163Z,101446.66
2023-04-07T19:29:13.859Z,101443.69
2023-04-07T19:31:42.788Z,101443.41
2023-04-07T19:34:10.595Z,101458.31
2023-04-07T19:36:38.355Z,101451.84
2023-04-07T19:39:06.115Z,101459.72
2023-04-07T19:41:33.942Z,101461.50
2023-04-07T19:44:03.094Z,101465.53
2023-04-07T19:46:30.973Z,101463.97
2023-04-07T19:48:58.708Z,101477.69
2023-04-07T19:51:27.626Z,101479.03
2023-04-07T19:53:55.574Z,101485.88
2023-04-07T19:56:23.260Z,101487.25
2023-04-07T19:58:51.096Z,101492.88
2023-04-07T20:01:20.497Z,101495.63
2023-04-07T20:03:49.018Z,101491.84
2023-04-07T20:06:18.036Z,101486.44
2023-04-07T20:08:45.716Z,101496.50
2023-04-07T20:11:13.575Z,101493.63
2023-04-07T20:13:42.036Z,101498.63
2023-04-07T20:16:09.968Z,101498.22
2023-04-07T20:18:39.139Z,101500.19
2023-04-07T20:21:07.000Z,101500.81
2023-04-07T20:23:34.843Z,101497.94
2023-04-07T20:26:02.642Z,101504.63
2023-04-07T20:28:30.386Z,101499.34
2023-04-07T20:30:58.066Z,101501.06
2023-04-07T20:33:25.786Z,101503.41
2023-04-07T20:35:54.985Z,101514.34
2023-04-07T20:38:22.870Z,101510.31
2023-04-07T20:40:50.653Z,101509.00
2023-04-07T20:43:21.761Z,101514.13
2023-04-07T20:45:49.651Z,101514.91
2023-04-07T20:48:23.281Z,101514.06
2023-04-07T20:50:51.291Z,101516.16
2023-04-07T20:53:20.497Z,101530.16
2023-04-07T20:55:48.372Z,101525.50
2023-04-07T20:58:17.701Z,101527.06
2023-04-07T21:00:45.654Z,101528.53
2023-04-07T21:03:13.690Z,101530.94
2023-04-07T21:05:44.927Z,101529.03
2023-04-07T21:08:14.363Z,101529.03
2023-04-07T21:10:43.698Z,101530.34
2023-04-07T21:13:11.547Z,101537.31
2023-04-07T21:15:39.478Z,101531.41
2023-04-07T21:18:07.315Z,101531.34
2023-04-07T21:20:37.011Z,101529.34
2023-04-07T21:23:05.568Z,101535.53
2023-04-07T21:25:33.287Z,101534.38
2023-04-07T21:28:02.444Z,101540.06
2023-04-07T21:30:30.135Z,101546.56
2023-04-07T21:32:57.919Z,101540.59
2023-04-07T21:35:27.844Z,101539.53
2023-04-07T21:37:55.711Z,101538.16
2023-04-07T21:40:23.556Z,101544.41
2023-04-07T21:42:52.247Z,101548.28
2023-04-07T21:45:21.772Z,101546.34
2023-04-07T21:47:49.595Z,101545.91
2023-04-07T21:50:17.535Z,101547.31
2023-04-07T21:52:45.347Z,101539.97
2023-04-07T21:55:13.288Z,101541.50
2023-04-07T21:57:41.044Z,101537.13
2023-04-07T22:00:10.641Z,101538.34
2023-04-07T22:02:39.995Z,101526.59
2023-04-07T22:05:08.380Z,101526.69
2023-04-07T22:07:36.066Z,101525.63
2023-04-07T22:10:03.923Z,101523.72
2023-04-07T22:12:31.683Z,101527.53
2023-04-07T22:14:59.411Z,101531.47
2023-04-07T22:17:27.278Z,101530.06
2023-04-07T22:19:56.415Z,101528.66
2023-04-07T22:22:24.273Z,101525.41
2023-04-07T22:24:52.041Z,101528.91
2023-04-07T22:27:19.730Z,101528.31
2023-04-07T22:29:47.407Z,101530.84
2023-04-07T22:32:15.103Z,101529.41
2023-04-07T22:34:42.878Z,101523.13
2023-04-07T22:37:11.940Z,101525.28
2023-04-07T22:39:40.134Z,101523.56
2023-04-07T22:42:08.031Z,101526.03
2023-04-07T22:44:35.890Z,101523.03
2023-04-07T22:47:04.105Z,101525.97
2023-04-07T22:49:32.296Z,101524.34
2023-04-07T22:51:59.982Z,101532.22
2023-04-07T22:54:29.051Z,101521.28
2023-04-07T22:56:57.479Z,101525.00
2023-04-07T22:59:25.372Z,101522.50
2023-04-07T23:01:53.842Z,101531.34
2023-04-07T23:04:23.054Z,101527.50
2023-04-07T23:06:50.765Z,101526.31
2023-04-07T23:09:18.438Z,101529.59
2023-04-07T23:11:48.729Z,101531.03
2023-04-07T23:14:16.518Z,101534.31
2023-04-07T23:16:44.301Z,101540.88
2023-04-07T23:19:15.473Z,101545.31
2023-04-07T23:21:43.676Z,101547.63
2023-04-07T23:24:11.554Z,101541.94
2023-04-07T23:26:39.220Z,101544.94
2023-04-07T23:29:08.280Z,101539.84
2023-04-07T23:31:36.070Z,101542.13
2023-04-07T23:34:05.374Z,101552.47
2023-04-07T23:36:33.219Z,101550.72
2023-04-07T23:39:02.022Z,101560.97
2023-04-07T23:41:29.748Z,101558.91
2023-04-07T23:43:57.544Z,101563.72
2023-04-07T23:46:26.772Z,101560.91
2023-04-07T23:48:54.552Z,101562.28
2023-04-07T23:51:22.826Z,101563.78
2023-04-07T23:53:50.754Z,101566.91
2023-04-07T23:56:18.602Z,101564.66
2023-04-07T23:58:46.627Z,101566.66
